createdAt,value
2023-05-14T00:01:53.963Z,64.46
2023-05-14T00:04:23.119Z,64.40
2023-05-14T00:06:51.496Z,64.30
2023-05-14T00:09:20.173Z,64.10
2023-05-14T00:11:48.453Z,64.15
2023-05-14T00:14:16.843Z,64.23
2023-05-14T00:16:45.313Z,65.00
2023-05-14T00:19:13.808Z,64.78
2023-05-14T00:21:42.883Z,64.57
2023-05-14T00:24:11.268Z,64.35
2023-05-14T00:26:39.749Z,64.13
2023-05-14T00:29:08.219Z,64.29
2023-05-14T00:31:36.455Z,64.27
2023-05-14T00:34:05.389Z,64.20
2023-05-14T00:36:34.084Z,64.32
2023-05-14T00:39:02.461Z,64.29
2023-05-14T00:41:31.145Z,64.15
2023-05-14T00:43:59.866Z,63.92
2023-05-14T00:46:29.067Z,64.34
2023-05-14T00:48:58.934Z,64.98
2023-05-14T00:51:27.409Z,64.94
2023-05-14T00:53:55.894Z,64.54
2023-05-14T00:56:25.084Z,64.33
2023-05-14T00:58:53.264Z,64.29
2023-05-14T01:01:21.891Z,63.86
2023-05-14T01:03:53.614Z,64.02
2023-05-14T01:06:36.311Z,64.05
2023-05-14T01:09:10.114Z,63.92
2023-05-14T01:11:53.345Z,63.79
2023-05-14T01:14:28.986Z,63.51
2023-05-14T01:17:01.626Z,63.32
2023-05-14T01:19:45.331Z,63.22
2023-05-14T01:22:14.007Z,63.14
2023-05-14T01:24:42.474Z,63.10
2023-05-14T01:27:30.909Z,62.86
2023-05-14T01:30:27.454Z,62.73
2023-05-14T01:33:00.706Z,63.41
2023-05-14T01:35:30.874Z,63.45
2023-05-14T01:38:02.413Z,63.20
2023-05-14T01:40:32.943Z,62.84
2023-05-14T01:43:02.715Z,62.42
2023-05-14T01:45:31.851Z,62.15
2023-05-14T01:48:00.281Z,62.16
2023-05-14T01:50:29.018Z,62.05
2023-05-14T01:52:57.395Z,61.93
2023-05-14T01:55:25.969Z,61.84
2023-05-14T01:57:54.695Z,61.65
2023-05-14T02:00:26.158Z,61.72
2023-05-14T02:02:54.519Z,61.60
2023-05-14T02:05:24.554Z,61.60
2023-05-14T02:07:54.414Z,61.64
2023-05-14T02:10:23.013Z,61.47
2023-05-14T02:12:51.682Z,61.54
2023-05-14T02:15:20.262Z,61.77
2023-05-14T02:17:48.931Z,61.69
2023-05-14T02:20:17.321Z,61.83
2023-05-14T02:22:46.524Z,61.74
2023-05-14T02:25:15.208Z,62.18
2023-05-14T02:27:43.585Z,62.33
2023-05-14T02:30:12.877Z,62.51
2023-05-14T02:32:41.579Z,62.39
2023-05-14T02:35:10.251Z,62.24
2023-05-14T02:37:39.363Z,62.20
2023-05-14T02:40:08.457Z,62.07
2023-05-14T02:42:36.735Z,62.09
2023-05-14T02:45:06.526Z,62.23
2023-05-14T02:47:36.972Z,62.49
2023-05-14T02:50:07.288Z,62.27
2023-05-14T02:52:35.981Z,62.16
2023-05-14T02:55:05.465Z,62.34
2023-05-14T02:57:33.751Z,62.13
2023-05-14T03:00:02.258Z,62.26
2023-05-14T03:02:31.308Z,62.60
2023-05-14T03:05:00.231Z,62.43
2023-05-14T03:07:28.475Z,62.51
2023-05-14T03:09:56.966Z,62.62
2023-05-14T03:12:25.751Z,62.46
2023-05-14T03:14:54.027Z,62.56
2023-05-14T03:17:22.571Z,61.77
2023-05-14T03:19:50.986Z,60.40
2023-05-14T03:22:19.666Z,58.46
2023-05-14T03:24:49.267Z,56.92
2023-05-14T03:27:17.757Z,54.61
2023-05-14T03:29:46.246Z,53.50
2023-05-14T03:32:15.329Z,51.29
2023-05-14T03:34:45.038Z,48.71
2023-05-14T03:37:13.631Z,46.53
2023-05-14T03:39:42.406Z,45.27
2023-05-14T03:42:10.681Z,44.12
2023-05-14T03:44:39.476Z,43.05
2023-05-14T03:47:08.068Z,41.80
2023-05-14T03:49:36.951Z,40.76
2023-05-14T03:52:06.236Z,40.46
2023-05-14T03:54:34.774Z,40.32
2023-05-14T03:57:03.825Z,39.18
2023-05-14T03:59:32.392Z,38.35
2023-05-14T04:02:01.329Z,37.31
2023-05-14T04:04:29.823Z,37.06
2023-05-14T04:06:58.151Z,35.30
2023-05-14T04:09:31.445Z,34.16
2023-05-14T04:12:00.178Z,34.13
2023-05-14T04:14:29.165Z,32.77
2023-05-14T04:16:58.220Z,31.89
2023-05-14T04:19:28.942Z,30.80
2023-05-14T04:22:02.550Z,29.94
2023-05-14T04:24:32.257Z,30.85
2023-05-14T04:27:28.033Z,29.95
2023-05-14T04:29:56.860Z,29.22
2023-05-14T04:32:30.671Z,28.93
2023-05-14T04:35:04.493Z,28.52
2023-05-14T04:37:33.768Z,27.59
2023-05-14T04:40:07.367Z,27.20
2023-05-14T04:42:37.892Z,27.00
2023-05-14T04:45:09.443Z,25.79
2023-05-14T04:47:38.053Z,24.26
2023-05-14T04:50:10.708Z,24.09
2023-05-14T04:52:39.696Z,23.62
2023-05-14T04:55:10.119Z,22.67
2023-05-14T04:57:38.605Z,23.09
2023-05-14T05:00:10.169Z,22.43
2023-05-14T05:02:43.874Z,23.00
2023-05-14T05:05:16.135Z,22.62
2023-05-14T05:07:44.407Z,22.75
2023-05-14T05:10:17.809Z,22.48
2023-05-14T05:12:46.383Z,22.39
2023-05-14T05:15:14.553Z,22.38
2023-05-14T05:17:43.319Z,22.31
2023-05-14T05:20:13.675Z,22.72
2023-05-14T05:22:42.665Z,22.94
2023-05-14T05:25:14.224Z,21.02
2023-05-14T05:27:42.998Z,21.27
2023-05-14T05:30:12.925Z,21.25
2023-05-14T05:32:41.740Z,21.17
2023-05-14T05:35:11.406Z,21.77
2023-05-14T05:37:46.032Z,21.85
2023-05-14T05:40:16.409Z,22.42
2023-05-14T05:42:44.733Z,22.43
2023-05-14T05:45:16.896Z,22.54
2023-05-14T05:47:47.145Z,23.41
2023-05-14T05:50:20.131Z,23.64
2023-05-14T05:52:54.012Z,23.51
2023-05-14T05:55:22.482Z,23.08
2023-05-14T05:58:18.256Z,23.89
2023-05-14T06:01:11.937Z,22.81
2023-05-14T06:03:40.576Z,22.61
2023-05-14T06:06:09.760Z,21.84
2023-05-14T06:09:09.474Z,21.75
2023-05-14T06:11:37.755Z,21.68
2023-05-14T06:14:08.496Z,21.62
2023-05-14T06:16:37.089Z,22.30
2023-05-14T06:19:06.556Z,22.40
2023-05-14T06:21:40.845Z,21.89
2023-05-14T06:24:10.293Z,21.90
2023-05-14T06:26:46.027Z,22.60
2023-05-14T06:29:16.363Z,22.26
2023-05-14T06:31:45.022Z,21.77
2023-05-14T06:34:15.986Z,22.95
2023-05-14T06:36:44.265Z,22.44
2023-05-14T06:39:13.689Z,22.88
2023-05-14T06:41:42.137Z,22.61
2023-05-14T06:44:12.662Z,22.97
2023-05-14T06:46:41.051Z,23.05
2023-05-14T06:49:10.254Z,23.72
2023-05-14T06:51:41.072Z,24.48
2023-05-14T06:54:09.762Z,24.28
2023-05-14T06:56:38.339Z,23.86
2023-05-14T06:59:07.738Z,24.09
2023-05-14T07:01:39.255Z,23.61
2023-05-14T07:04:08.647Z,24.12
2023-05-14T07:06:37.184Z,25.21
2023-05-14T07:09:06.702Z,25.17
2023-05-14T07:11:35.359Z,25.31
2023-05-14T07:14:06.315Z,25.10
2023-05-14T07:16:34.667Z,24.73
2023-05-14T07:19:02.761Z,24.39
2023-05-14T07:21:36.603Z,24.73
2023-05-14T07:24:05.655Z,25.29
2023-05-14T07:26:34.538Z,25.00
2023-05-14T07:29:08.967Z,24.54
2023-05-14T07:31:37.496Z,24.28
2023-05-14T07:34:05.922Z,23.76
2023-05-14T07:36:34.704Z,24.07
2023-05-14T07:39:03.492Z,23.69
2023-05-14T07:41:32.996Z,23.60
2023-05-14T07:44:01.696Z,23.87
2023-05-14T07:46:55.227Z,23.43
2023-05-14T07:49:23.626Z,23.74
2023-05-14T07:51:53.025Z,22.80
2023-05-14T07:54:23.972Z,22.74
2023-05-14T07:56:52.491Z,24.34
2023-05-14T07:59:21.886Z,23.91
2023-05-14T08:01:50.297Z,23.73
2023-05-14T08:04:24.275Z,23.28
2023-05-14T08:06:52.816Z,23.55
2023-05-14T08:09:21.468Z,22.89
2023-05-14T08:11:50.086Z,23.36
2023-05-14T08:14:18.665Z,24.02
2023-05-14T08:16:47.982Z,24.50
2023-05-14T08:19:16.601Z,24.44
2023-05-14T08:21:45.343Z,24.93
2023-05-14T08:24:14.423Z,25.04
2023-05-14T08:26:43.220Z,25.77
2023-05-14T08:29:16.460Z,25.19
2023-05-14T08:31:45.812Z,25.23
2023-05-14T08:34:15.280Z,26.25
2023-05-14T08:36:43.678Z,26.03
2023-05-14T08:39:12.177Z,25.61
2023-05-14T08:41:41.677Z,26.71
2023-05-14T08:44:20.914Z,27.38
2023-05-14T08:46:51.860Z,27.16
2023-05-14T08:49:47.085Z,26.96
2023-05-14T08:52:18.914Z,27.50
2023-05-14T08:54:50.981Z,28.01
2023-05-14T08:57:21.819Z,28.75
2023-05-14T08:59:51.723Z,28.46
2023-05-14T09:02:28.010Z,28.25
2023-05-14T09:04:59.237Z,29.62
2023-05-14T09:07:28.838Z,29.16
2023-05-14T09:09:57.425Z,29.21
2023-05-14T09:12:26.923Z,28.24
2023-05-14T09:14:55.092Z,28.17
2023-05-14T09:17:28.211Z,28.70
2023-05-14T09:19:57.177Z,28.40
2023-05-14T09:22:30.646Z,28.73
2023-05-14T09:25:04.171Z,28.38
2023-05-14T09:27:34.703Z,28.21
2023-05-14T09:30:13.852Z,29.15
2023-05-14T09:32:44.805Z,29.02
2023-05-14T09:35:24.196Z,27.95
2023-05-14T09:37:55.974Z,28.86
2023-05-14T09:40:24.987Z,29.19
2023-05-14T09:42:56.393Z,28.73
2023-05-14T09:45:24.685Z,28.65
2023-05-14T09:47:53.609Z,28.40
2023-05-14T09:50:22.889Z,29.01
2023-05-14T09:52:51.756Z,29.19
2023-05-14T09:55:21.358Z,29.16
2023-05-14T09:57:50.452Z,28.86
2023-05-14T10:00:19.552Z,29.05
2023-05-14T10:02:49.185Z,28.86
2023-05-14T10:05:19.714Z,30.10
2023-05-14T10:07:52.074Z,29.39
2023-05-14T10:10:24.798Z,30.55
2023-05-14T10:12:58.113Z,30.18
2023-05-14T10:15:53.322Z,29.02
2023-05-14T10:18:24.370Z,30.19
2023-05-14T10:21:06.987Z,30.56
2023-05-14T10:23:40.992Z,30.35
2023-05-14T10:26:11.323Z,30.35
2023-05-14T10:28:40.935Z,30.78
2023-05-14T10:31:11.094Z,29.46
2023-05-14T10:33:50.844Z,30.40
2023-05-14T10:36:20.898Z,29.88
2023-05-14T10:38:56.552Z,29.55
2023-05-14T10:41:24.824Z,29.32
2023-05-14T10:43:53.102Z,29.34
2023-05-14T10:46:22.040Z,30.70
2023-05-14T10:48:52.002Z,30.54
2023-05-14T10:51:23.363Z,30.00
2023-05-14T10:53:55.327Z,29.77
2023-05-14T10:56:24.924Z,30.13
2023-05-14T10:58:58.831Z,30.43
2023-05-14T11:01:29.067Z,30.74
2023-05-14T11:03:58.816Z,29.41
2023-05-14T11:06:28.572Z,30.53
2023-05-14T11:08:58.281Z,27.75
2023-05-14T11:11:26.769Z,28.62
2023-05-14T11:13:57.703Z,27.28
2023-05-14T11:16:31.074Z,28.77
2023-05-14T11:19:05.166Z,28.98
2023-05-14T11:21:33.940Z,28.71
2023-05-14T11:24:04.216Z,28.93
2023-05-14T11:26:33.221Z,28.61
2023-05-14T11:29:02.117Z,28.82
2023-05-14T11:31:31.521Z,28.26
2023-05-14T11:34:07.360Z,29.09
2023-05-14T11:36:39.265Z,28.05
2023-05-14T11:39:08.511Z,28.09
2023-05-14T11:41:36.883Z,28.11
2023-05-14T11:44:06.759Z,28.21
2023-05-14T11:46:36.574Z,26.91
2023-05-14T11:49:07.139Z,28.08
2023-05-14T11:51:36.848Z,28.31
2023-05-14T11:54:05.735Z,27.59
2023-05-14T11:56:33.910Z,26.82
2023-05-14T11:59:02.179Z,27.72
2023-05-14T12:01:37.316Z,26.82
2023-05-14T12:04:07.236Z,27.77
2023-05-14T12:06:35.811Z,28.38
2023-05-14T12:09:06.956Z,28.72
2023-05-14T12:11:37.591Z,28.34
2023-05-14T12:14:16.348Z,28.36
2023-05-14T12:16:46.590Z,28.52
2023-05-14T12:19:17.403Z,26.69
2023-05-14T12:21:48.405Z,27.38
2023-05-14T12:24:20.262Z,28.65
2023-05-14T12:26:52.041Z,27.55
2023-05-14T12:29:22.244Z,27.63
2023-05-14T12:31:51.364Z,27.99
2023-05-14T12:34:19.920Z,29.12
2023-05-14T12:36:48.406Z,27.47
2023-05-14T12:39:17.383Z,29.68
2023-05-14T12:41:45.975Z,29.47
2023-05-14T12:44:14.247Z,30.83
2023-05-14T12:46:42.660Z,30.25
2023-05-14T12:49:11.837Z,30.39
2023-05-14T12:51:40.199Z,30.70
2023-05-14T12:54:08.778Z,30.86
2023-05-14T12:56:39.308Z,31.84
2023-05-14T12:59:07.993Z,32.85
2023-05-14T13:01:38.419Z,33.12
2023-05-14T13:04:07.039Z,34.24
2023-05-14T13:06:35.280Z,35.65
2023-05-14T13:09:04.597Z,37.47
2023-05-14T13:11:33.769Z,38.13
2023-05-14T13:14:03.281Z,38.41
2023-05-14T13:16:31.719Z,39.01
2023-05-14T13:19:00.589Z,39.19
2023-05-14T13:21:29.037Z,40.12
2023-05-14T13:23:57.196Z,40.20
2023-05-14T13:26:28.640Z,40.74
2023-05-14T13:28:57.115Z,41.94
2023-05-14T13:31:25.890Z,42.24
2023-05-14T13:33:55.008Z,41.66
2023-05-14T13:36:23.283Z,40.62
2023-05-14T13:38:51.556Z,43.01
2023-05-14T13:41:19.933Z,41.94
2023-05-14T13:43:48.516Z,39.73
2023-05-14T13:46:17.183Z,40.86
2023-05-14T13:48:46.088Z,39.71
2023-05-14T13:51:14.360Z,40.50
2023-05-14T13:53:42.841Z,39.89
2023-05-14T13:56:11.123Z,38.43
2023-05-14T13:58:39.910Z,39.32
2023-05-14T14:01:09.542Z,39.86
2023-05-14T14:03:38.336Z,38.84
2023-05-14T14:06:06.677Z,38.42
2023-05-14T14:08:34.852Z,39.86
2023-05-14T14:11:03.318Z,40.81
2023-05-14T14:13:31.823Z,38.88
2023-05-14T14:16:00.545Z,39.20
2023-05-14T14:18:28.883Z,37.10
2023-05-14T14:20:57.762Z,38.13
2023-05-14T14:23:26.141Z,38.87
2023-05-14T14:25:54.823Z,40.29
2023-05-14T14:28:23.201Z,40.22
2023-05-14T14:30:51.625Z,39.47
2023-05-14T14:33:20.065Z,40.88
2023-05-14T14:35:48.455Z,42.39
2023-05-14T14:38:19.638Z,43.33
2023-05-14T14:40:48.091Z,43.39
2023-05-14T14:43:17.160Z,43.54
2023-05-14T14:45:48.226Z,44.55
2023-05-14T14:48:25.691Z,45.83
2023-05-14T14:50:56.427Z,48.04
2023-05-14T14:53:25.758Z,48.47
2023-05-14T14:55:54.300Z,47.99
2023-05-14T14:58:24.067Z,48.44
2023-05-14T15:00:55.714Z,48.02
2023-05-14T15:03:25.377Z,48.55
2023-05-14T15:05:54.165Z,47.82
2023-05-14T15:08:30.209Z,48.54
2023-05-14T15:10:59.830Z,48.93
2023-05-14T15:13:29.563Z,49.31
2023-05-14T15:15:57.917Z,48.74
2023-05-14T15:18:27.166Z,49.59
2023-05-14T15:20:57.137Z,49.86
2023-05-14T15:23:25.300Z,50.60
2023-05-14T15:25:53.884Z,51.62
2023-05-14T15:28:22.068Z,50.00
2023-05-14T15:30:50.640Z,49.39
2023-05-14T15:33:19.934Z,48.87
2023-05-14T15:35:48.317Z,49.70
2023-05-14T15:38:16.705Z,49.76
2023-05-14T15:40:45.169Z,49.82
2023-05-14T15:43:13.552Z,49.86
2023-05-14T15:45:45.402Z,50.71
2023-05-14T15:48:13.616Z,50.23
2023-05-14T15:50:42.468Z,50.98
2023-05-14T15:53:10.964Z,51.09
2023-05-14T15:55:39.224Z,51.66
2023-05-14T15:58:07.394Z,52.25
2023-05-14T16:00:35.566Z,52.53
2023-05-14T16:03:04.031Z,52.06
2023-05-14T16:05:32.948Z,51.40
2023-05-14T16:08:01.423Z,51.48
2023-05-14T16:10:30.044Z,51.81
2023-05-14T16:12:58.716Z,52.97
2023-05-14T16:15:27.480Z,54.27
2023-05-14T16:17:56.238Z,54.47
2023-05-14T16:20:25.028Z,55.25
2023-05-14T16:22:53.626Z,55.85
2023-05-14T16:25:21.898Z,57.75
2023-05-14T16:27:50.275Z,57.28
2023-05-14T16:30:18.674Z,57.39
2023-05-14T16:32:50.201Z,57.55
2023-05-14T16:35:19.306Z,58.08
2023-05-14T16:37:47.580Z,59.01
2023-05-14T16:40:16.568Z,58.52
2023-05-14T16:42:47.084Z,59.27
2023-05-14T16:45:17.421Z,59.28
2023-05-14T16:47:45.924Z,59.77
2023-05-14T16:50:14.384Z,60.37
2023-05-14T16:52:42.664Z,60.04
2023-05-14T16:55:11.127Z,60.96
2023-05-14T16:57:39.406Z,61.40
2023-05-14T17:00:09.716Z,62.06
2023-05-14T17:02:38.431Z,62.75
2023-05-14T17:05:08.020Z,62.32
2023-05-14T17:07:39.520Z,63.41
2023-05-14T17:10:08.566Z,62.71
2023-05-14T17:12:37.004Z,63.03
2023-05-14T17:15:07.471Z,64.48
2023-05-14T17:17:35.754Z,64.43
2023-05-14T17:20:06.268Z,65.26
2023-05-14T17:22:34.753Z,64.49
2023-05-14T17:25:03.123Z,66.24
2023-05-14T17:27:33.465Z,66.73
2023-05-14T17:30:03.885Z,66.56
2023-05-14T17:32:32.559Z,66.20
2023-05-14T17:35:01.087Z,66.27
2023-05-14T17:37:29.725Z,65.44
2023-05-14T17:39:58.001Z,65.98
2023-05-14T17:42:26.474Z,66.29
2023-05-14T17:44:54.851Z,66.22
2023-05-14T17:47:23.334Z,66.27
2023-05-14T17:49:51.719Z,67.00
2023-05-14T17:52:21.019Z,67.62
2023-05-14T17:54:49.499Z,67.04
2023-05-14T17:57:17.782Z,67.69
2023-05-14T17:59:46.167Z,68.93
2023-05-14T18:02:14.533Z,68.68
2023-05-14T18:04:43.115Z,67.73
2023-05-14T18:07:11.394Z,68.73
2023-05-14T18:09:39.796Z,68.99
2023-05-14T18:12:08.980Z,69.43
2023-05-14T18:14:37.242Z,69.09
2023-05-14T18:17:06.488Z,69.21
2023-05-14T18:19:35.027Z,68.59
2023-05-14T18:22:03.200Z,68.55
2023-05-14T18:24:31.580Z,68.31
2023-05-14T18:27:00.803Z,68.59
2023-05-14T18:29:29.150Z,68.84
2023-05-14T18:31:57.800Z,68.05
2023-05-14T18:34:26.110Z,69.09
2023-05-14T18:47:44.594Z,69.23
2023-05-14T18:50:12.847Z,69.70
2023-05-14T18:52:41.229Z,69.64
2023-05-14T18:55:10.101Z,69.76
2023-05-14T18:57:38.485Z,70.50
2023-05-14T19:00:08.097Z,70.46
2023-05-14T19:02:36.674Z,70.01
2023-05-14T19:05:06.708Z,69.79
2023-05-14T19:07:35.067Z,69.48
2023-05-14T19:10:03.959Z,69.64
2023-05-14T19:12:32.232Z,69.70
2023-05-14T19:15:00.615Z,70.06
2023-05-14T19:17:29.720Z,70.72
2023-05-14T19:19:58.486Z,71.28
2023-05-14T19:22:27.176Z,71.40
2023-05-14T19:24:55.455Z,71.65
2023-05-14T19:27:24.554Z,71.31
2023-05-14T19:29:53.029Z,71.42
2023-05-14T19:32:21.192Z,72.39
2023-05-14T19:39:22.465Z,73.14
2023-05-14T19:41:50.749Z,72.46
2023-05-14T19:44:19.109Z,72.39
2023-05-14T19:46:47.641Z,71.76
2023-05-14T19:49:15.983Z,71.20
2023-05-14T19:51:44.259Z,72.79
2023-05-14T20:54:52.875Z,68.56
2023-05-14T20:57:21.352Z,68.89
2023-05-14T20:59:49.928Z,69.38
2023-05-14T21:02:18.602Z,69.21
2023-05-14T21:04:47.768Z,69.90
2023-05-14T21:07:16.299Z,70.33
2023-05-14T21:09:46.625Z,70.92
2023-05-14T21:12:14.697Z,71.17
2023-05-14T21:14:43.162Z,71.60
2023-05-14T21:17:11.658Z,71.59
2023-05-14T21:19:40.742Z,71.41
2023-05-14T21:22:09.123Z,71.24
2023-05-14T21:24:37.391Z,71.55
2023-05-14T21:27:06.189Z,71.48
2023-05-14T21:29:34.573Z,71.77
2023-05-14T21:32:03.485Z,72.03
2023-05-14T21:34:32.335Z,71.93
2023-05-14T21:37:01.034Z,72.04
2023-05-14T21:39:29.295Z,72.58
2023-05-14T21:41:57.566Z,72.48
2023-05-14T21:44:25.757Z,72.69
2023-05-14T21:46:54.139Z,72.64
2023-05-14T21:49:22.405Z,73.14
2023-05-14T21:51:53.285Z,73.08
2023-05-14T21:54:22.017Z,72.35
2023-05-14T21:56:50.291Z,72.49
2023-05-14T21:59:18.563Z,72.67
2023-05-14T22:02:05.675Z,72.62
2023-05-14T22:04:35.491Z,73.02
2023-05-14T22:07:04.615Z,72.82
2023-05-14T22:09:32.865Z,72.90
2023-05-14T22:12:01.450Z,73.64
2023-05-14T22:14:29.725Z,73.14
2023-05-14T22:16:57.951Z,73.48
2023-05-14T22:19:27.608Z,73.62
2023-05-14T22:21:55.781Z,73.46
2023-05-14T22:24:24.264Z,72.65
2023-05-14T22:26:52.547Z,73.28
2023-05-14T22:29:20.928Z,73.68
2023-05-14T22:31:49.235Z,73.32
2023-05-14T22:34:17.969Z,73.77
2023-05-14T22:36:46.351Z,73.54
2023-05-14T22:39:14.523Z,73.43
2023-05-14T22:41:42.809Z,72.98
2023-05-14T22:44:11.174Z,73.52
2023-05-14T22:46:39.485Z,73.48
2023-05-14T22:49:08.030Z,74.15
2023-05-14T22:51:36.205Z,73.61
2023-05-14T22:54:04.690Z,74.31
2023-05-14T22:56:33.060Z,74.78
2023-05-14T22:59:01.758Z,74.03
2023-05-14T23:01:31.334Z,73.99
2023-05-14T23:03:59.855Z,74.07
2023-05-14T23:06:28.213Z,73.70
2023-05-14T23:08:56.599Z,73.76
2023-05-14T23:11:26.860Z,73.67
2023-05-14T23:13:55.088Z,73.54
2023-05-14T23:16:23.569Z,73.93
2023-05-14T23:18:52.284Z,73.89
2023-05-14T23:21:20.915Z,74.38
2023-05-14T23:23:49.518Z,74.83
2023-05-14T23:26:18.108Z,74.42
2023-05-14T23:28:47.601Z,74.44
2023-05-14T23:31:15.879Z,75.12
2023-05-14T23:33:44.877Z,75.46
2023-05-14T23:36:13.458Z,75.52
2023-05-14T23:38:42.138Z,75.97
2023-05-14T23:41:10.515Z,75.50
2023-05-14T23:43:38.904Z,74.99
2023-05-14T23:46:09.057Z,74.80
2023-05-14T23:48:37.492Z,74.96
2023-05-14T23:51:06.070Z,75.38
2023-05-14T23:53:34.350Z,75.78
2023-05-14T23:56:02.832Z,76.11
2023-05-14T23:58:32.538Z,76.57
